createdAt,value
2024-02-13T00:00:41.646Z,97949.94
2024-02-13T00:02:45.039Z,97950.09
2024-02-13T00:04:50.075Z,97947.44
2024-02-13T00:06:55.587Z,97947.50
2024-02-13T00:08:59.292Z,97953.81
2024-02-13T00:11:05.869Z,97961.75
2024-02-13T00:13:09.794Z,97964.53
2024-02-13T00:15:20.138Z,97960.34
2024-02-13T00:17:24.403Z,97966.84
2024-02-13T00:19:27.668Z,97967.97
2024-02-13T00:21:30.951Z,97977.38
2024-02-13T00:23:35.504Z,97980.75
2024-02-13T00:25:38.723Z,97982.06
2024-02-13T00:27:41.928Z,97994.69
2024-02-13T00:29:46.527Z,98004.88
2024-02-13T00:31:51.824Z,98001.22
2024-02-13T00:34:15.088Z,98002.72
2024-02-13T00:36:18.301Z,98006.22
2024-02-13T00:38:20.700Z,98006.13
2024-02-13T00:40:24.099Z,98007.72
2024-02-13T00:42:27.504Z,98015.31
2024-02-13T00:44:30.971Z,98018.75
2024-02-13T00:46:35.914Z,98026.44
2024-02-13T00:48:40.689Z,98029.88
2024-02-13T00:50:45.706Z,98034.31
2024-02-13T00:52:47.952Z,98037.16
2024-02-13T00:54:52.204Z,98039.59
2024-02-13T00:56:55.307Z,98045.19
2024-02-13T00:59:04.442Z,98054.88
2024-02-13T01:01:07.899Z,98060.03
2024-02-13T01:03:12.157Z,98062.47
2024-02-13T01:05:18.004Z,98057.22
2024-02-13T01:07:21.209Z,98065.59
2024-02-13T01:09:24.568Z,98070.69
2024-02-13T01:11:26.848Z,98076.63
2024-02-13T01:13:31.437Z,98073.78
2024-02-13T01:15:34.622Z,98087.41
2024-02-13T01:17:37.923Z,98095.97
2024-02-13T01:19:41.595Z,98096.78
2024-02-13T01:21:47.147Z,98102.72
2024-02-13T01:23:49.289Z,98107.72
2024-02-13T01:25:52.721Z,98112.09
2024-02-13T01:27:56.586Z,98110.56
2024-02-13T01:29:59.870Z,98108.06
2024-02-13T01:32:03.157Z,98109.91
2024-02-13T01:34:08.400Z,98104.06
2024-02-13T01:36:11.936Z,98105.72
2024-02-13T01:38:16.553Z,98124.38
2024-02-13T01:40:19.764Z,98120.44
2024-02-13T01:42:22.050Z,98120.84
2024-02-13T01:44:28.549Z,98124.88
2024-02-13T01:46:32.159Z,98130.00
2024-02-13T01:48:38.057Z,98133.25
2024-02-13T01:50:41.652Z,98126.16
2024-02-13T01:52:44.115Z,98130.31
2024-02-13T01:54:48.715Z,98136.34
2024-02-13T01:56:53.475Z,98137.25
2024-02-13T01:58:56.886Z,98138.19
2024-02-13T02:01:05.442Z,98136.44
2024-02-13T02:03:09.280Z,98144.06
2024-02-13T02:05:14.907Z,98142.22
2024-02-13T02:07:28.194Z,98149.81
2024-02-13T02:09:31.375Z,98148.13
2024-02-13T02:11:36.062Z,98151.59
2024-02-13T02:13:39.862Z,98149.75
2024-02-13T02:16:01.904Z,98160.78
2024-02-13T02:18:06.401Z,98155.59
2024-02-13T02:20:10.484Z,98156.41
2024-02-13T02:22:13.655Z,98156.31
2024-02-13T02:24:15.801Z,98160.59
2024-02-13T02:26:31.327Z,98161.44
2024-02-13T02:28:44.434Z,98165.72
2024-02-13T02:30:48.761Z,98161.25
2024-02-13T02:32:51.171Z,98165.47
2024-02-13T02:34:56.962Z,98168.78
2024-02-13T02:36:59.419Z,98162.59
2024-02-13T02:39:03.830Z,98172.91
2024-02-13T02:41:08.386Z,98171.91
2024-02-13T02:43:13.136Z,98175.16
2024-02-13T02:45:17.207Z,98180.19
2024-02-13T02:47:20.553Z,98180.09
2024-02-13T02:49:23.976Z,98177.34
2024-02-13T02:51:27.184Z,98179.94
2024-02-13T02:53:30.466Z,98186.03
2024-02-13T02:55:33.626Z,98179.34
2024-02-13T02:57:36.000Z,98177.75
2024-02-13T02:59:40.593Z,98178.00
2024-02-13T03:01:43.770Z,98173.06
2024-02-13T03:03:45.913Z,98178.44
2024-02-13T03:05:49.741Z,98186.22
2024-02-13T03:07:52.919Z,98188.97
2024-02-13T03:09:55.171Z,98204.47
2024-02-13T03:11:58.388Z,98195.94
2024-02-13T03:14:01.650Z,98193.41
2024-02-13T03:16:06.702Z,98200.59
2024-02-13T03:18:11.053Z,98200.00
2024-02-13T03:20:15.236Z,98199.28
2024-02-13T03:22:32.881Z,98203.97
2024-02-13T03:24:36.030Z,98205.94
2024-02-13T03:26:39.230Z,98201.78
2024-02-13T03:29:03.261Z,98217.50
2024-02-13T03:31:07.855Z,98207.22
2024-02-13T03:33:11.402Z,98215.81
2024-02-13T03:35:15.283Z,98221.81
2024-02-13T03:37:17.442Z,98226.19
2024-02-13T03:39:21.992Z,98222.69
2024-02-13T03:41:25.150Z,98219.41
2024-02-13T03:43:28.512Z,98225.53
2024-02-13T03:45:31.634Z,98231.69
2024-02-13T03:47:44.715Z,98229.56
2024-02-13T03:49:48.067Z,98230.22
2024-02-13T03:51:51.579Z,98229.97
2024-02-13T03:53:53.762Z,98233.28
2024-02-13T03:55:56.973Z,98246.75
2024-02-13T03:58:00.180Z,98241.97
2024-02-13T04:00:06.482Z,98242.56
2024-02-13T04:02:12.487Z,98238.91
2024-02-13T04:04:17.074Z,98238.84
2024-02-13T04:06:19.482Z,98244.59
2024-02-13T04:08:23.164Z,98247.97
2024-02-13T04:10:26.394Z,98243.03
2024-02-13T04:12:33.069Z,98250.44
2024-02-13T04:14:35.967Z,98243.06
2024-02-13T04:16:40.856Z,98244.22
2024-02-13T04:18:44.334Z,98236.78
2024-02-13T04:20:49.719Z,98247.28
2024-02-13T04:22:55.167Z,98244.13
2024-02-13T04:24:58.473Z,98254.63
2024-02-13T04:27:01.892Z,98253.03
2024-02-13T04:29:05.333Z,98251.41
2024-02-13T04:31:07.951Z,98251.56
2024-02-13T04:33:13.442Z,98250.00
2024-02-13T04:35:17.119Z,98244.25
2024-02-13T04:37:23.895Z,98254.78
2024-02-13T04:39:27.250Z,98247.16
2024-02-13T04:41:31.361Z,98246.41
2024-02-13T04:43:35.131Z,98246.56
2024-02-13T04:45:38.687Z,98251.16
2024-02-13T04:47:42.128Z,98259.06
2024-02-13T04:49:45.655Z,98258.56
2024-02-13T04:51:49.128Z,98250.06
2024-02-13T04:53:54.159Z,98245.03
2024-02-13T04:55:59.859Z,98254.66
2024-02-13T04:58:03.957Z,98249.63
2024-02-13T05:00:17.568Z,98259.97
2024-02-13T05:02:22.757Z,98262.63
2024-02-13T05:04:45.126Z,98268.56
2024-02-13T05:07:05.694Z,98264.34
2024-02-13T05:09:11.275Z,98265.31
2024-02-13T05:11:15.408Z,98263.53
2024-02-13T05:13:20.973Z,98267.00
2024-02-13T05:15:24.670Z,98264.41
2024-02-13T05:17:28.614Z,98264.47
2024-02-13T05:19:31.799Z,98267.97
2024-02-13T05:21:36.898Z,98267.16
2024-02-13T05:23:40.461Z,98264.47
2024-02-13T05:25:46.686Z,98258.38
2024-02-13T05:27:51.339Z,98266.06
2024-02-13T05:29:54.523Z,98265.31
2024-02-13T05:31:58.110Z,98260.97
2024-02-13T05:34:01.330Z,98265.38
2024-02-13T05:36:05.292Z,98267.00
2024-02-13T05:38:08.841Z,98273.75
2024-02-13T05:40:13.198Z,98264.41
2024-02-13T05:42:19.957Z,98265.22
2024-02-13T05:44:23.266Z,98269.59
2024-02-13T05:46:25.530Z,98272.19
2024-02-13T05:48:28.839Z,98273.75
2024-02-13T05:50:32.230Z,98278.78
2024-02-13T05:52:35.503Z,98289.94
2024-02-13T05:54:40.766Z,98288.09
2024-02-13T05:56:47.507Z,98286.56
2024-02-13T05:58:52.033Z,98282.31
2024-02-13T06:00:55.292Z,98285.72
2024-02-13T06:03:02.227Z,98286.56
2024-02-13T06:05:07.758Z,98289.16
2024-02-13T06:07:10.948Z,98291.66
2024-02-13T06:09:14.242Z,98297.78
2024-02-13T06:11:17.454Z,98296.09
2024-02-13T06:13:21.245Z,98300.44
2024-02-13T06:15:26.874Z,98304.75
2024-02-13T06:17:30.138Z,98301.41
2024-02-13T06:19:32.537Z,98302.09
2024-02-13T06:21:35.684Z,98302.94
2024-02-13T06:23:38.896Z,98308.06
2024-02-13T06:25:42.210Z,98309.78
2024-02-13T06:27:46.931Z,98318.19
2024-02-13T06:29:50.189Z,98323.38
2024-02-13T06:31:56.362Z,98325.09
2024-02-13T06:33:59.721Z,98330.22
2024-02-13T06:36:04.004Z,98331.16
2024-02-13T06:38:10.700Z,98333.75
2024-02-13T06:40:14.802Z,98338.91
2024-02-13T06:42:18.215Z,98338.91
2024-02-13T06:44:23.655Z,98341.38
2024-02-13T06:46:26.888Z,98348.13
2024-02-13T06:48:32.331Z,98351.66
2024-02-13T06:50:35.742Z,98354.16
2024-02-13T06:52:37.908Z,98343.81
2024-02-13T06:54:42.440Z,98352.34
2024-02-13T06:56:45.532Z,98354.16
2024-02-13T06:58:49.732Z,98359.41
2024-02-13T07:00:53.119Z,98369.00
2024-02-13T07:02:56.703Z,98365.50
2024-02-13T07:05:01.638Z,98372.22
2024-02-13T07:07:19.382Z,98365.28
2024-02-13T07:09:31.191Z,98372.22
2024-02-13T07:11:34.643Z,98365.28
2024-02-13T07:13:41.278Z,98370.47
2024-02-13T07:15:44.805Z,98370.47
2024-02-13T07:17:56.194Z,98371.06
2024-02-13T07:20:05.664Z,98370.94
2024-02-13T07:22:09.876Z,98374.28
2024-02-13T07:24:13.103Z,98384.50
2024-02-13T07:26:15.919Z,98394.72
2024-02-13T07:28:19.359Z,98389.53
2024-02-13T07:30:23.077Z,98395.50
2024-02-13T07:32:26.591Z,98409.13
2024-02-13T07:34:28.817Z,98403.81
2024-02-13T07:36:33.504Z,98412.34
2024-02-13T07:38:36.864Z,98409.59
2024-02-13T07:40:40.047Z,98416.38
2024-02-13T07:42:43.276Z,98413.72
2024-02-13T07:44:46.732Z,98417.16
2024-02-13T07:46:51.344Z,98416.03
2024-02-13T07:48:56.270Z,98427.00
2024-02-13T07:51:00.160Z,98419.16
2024-02-13T07:53:05.823Z,98420.84
2024-02-13T07:55:10.734Z,98422.34
2024-02-13T07:57:17.808Z,98420.53
2024-02-13T07:59:21.139Z,98420.47
2024-02-13T08:01:24.522Z,98425.50
2024-02-13T08:03:27.750Z,98424.41
2024-02-13T08:05:34.822Z,98427.72
2024-02-13T08:07:38.125Z,98420.59
2024-02-13T08:09:42.676Z,98427.34
2024-02-13T08:11:48.380Z,98422.66
2024-02-13T08:13:51.815Z,98419.91
2024-02-13T08:15:54.094Z,98431.06
2024-02-13T08:17:57.540Z,98428.06
2024-02-13T08:20:05.079Z,98432.88
2024-02-13T08:22:09.129Z,98432.66
2024-02-13T08:24:12.297Z,98429.81
2024-02-13T08:26:16.877Z,98430.31
2024-02-13T08:28:20.883Z,98430.94
2024-02-13T08:30:25.143Z,98437.41
2024-02-13T08:32:28.254Z,98436.03
2024-02-13T08:34:31.822Z,98437.44
2024-02-13T08:36:38.293Z,98441.53
2024-02-13T08:38:43.222Z,98442.75
2024-02-13T08:40:46.528Z,98454.03
2024-02-13T08:42:51.379Z,98453.56
2024-02-13T08:44:53.897Z,98462.03
2024-02-13T08:46:57.152Z,98464.75
2024-02-13T08:49:02.241Z,98463.06
2024-02-13T08:51:06.425Z,98466.22
2024-02-13T08:53:10.830Z,98461.56
2024-02-13T08:55:14.613Z,98465.63
2024-02-13T08:57:17.820Z,98474.34
2024-02-13T08:59:22.381Z,98470.31
2024-02-13T09:01:25.663Z,98472.75
2024-02-13T09:03:29.003Z,98469.13
2024-02-13T09:05:32.548Z,98481.28
2024-02-13T09:07:35.893Z,98482.63
2024-02-13T09:09:39.006Z,98487.81
2024-02-13T09:11:42.442Z,98489.41
2024-02-13T09:13:46.282Z,98481.81
2024-02-13T09:15:50.853Z,98490.31
2024-02-13T09:17:54.903Z,98488.66
2024-02-13T09:19:59.788Z,98491.72
2024-02-13T09:22:03.048Z,98490.25
2024-02-13T09:24:07.614Z,98485.59
2024-02-13T09:26:10.802Z,98485.84
2024-02-13T09:28:13.940Z,98489.50
2024-02-13T09:30:18.159Z,98487.84
2024-02-13T09:32:22.645Z,98490.16
2024-02-13T09:34:25.890Z,98489.81
2024-02-13T09:36:29.357Z,98497.34
2024-02-13T09:38:32.889Z,98490.16
2024-02-13T09:40:36.553Z,98495.13
2024-02-13T09:42:41.090Z,98491.53
2024-02-13T09:44:44.310Z,98492.91
2024-02-13T09:46:48.721Z,98487.59
2024-02-13T09:48:55.916Z,98489.47
2024-02-13T09:51:00.023Z,98489.69
2024-02-13T09:53:06.875Z,98471.75
2024-02-13T09:55:11.660Z,98472.06
2024-02-13T09:57:15.144Z,98481.91
2024-02-13T09:59:18.444Z,98489.34
2024-02-13T10:01:21.834Z,98485.69
2024-02-13T10:03:25.135Z,98491.53
2024-02-13T10:05:29.881Z,98485.44
2024-02-13T10:07:33.476Z,98487.13
2024-02-13T10:09:38.163Z,98486.59
2024-02-13T10:11:42.824Z,98494.22
2024-02-13T10:13:48.484Z,98491.25
2024-02-13T10:15:51.883Z,98491.25
2024-02-13T10:17:56.536Z,98484.84
2024-02-13T10:19:58.879Z,98483.16
2024-02-13T10:22:07.982Z,98488.13
2024-02-13T10:24:13.639Z,98481.22
2024-02-13T10:26:18.664Z,98484.94
2024-02-13T10:28:23.546Z,98481.44
2024-02-13T10:30:28.800Z,98480.00
2024-02-13T10:32:35.749Z,98492.19
2024-02-13T10:34:39.848Z,98484.88
2024-02-13T10:36:46.097Z,98489.97
2024-02-13T10:38:51.308Z,98494.34
2024-02-13T10:40:59.089Z,98488.47
2024-02-13T10:43:02.288Z,98488.47
2024-02-13T10:45:08.112Z,98487.56
2024-02-13T10:47:17.731Z,98485.56
2024-02-13T10:49:26.761Z,98485.56
2024-02-13T10:51:31.595Z,98488.47
2024-02-13T10:53:34.946Z,98491.28
2024-02-13T10:55:43.845Z,98487.97
2024-02-13T10:57:47.526Z,98489.19
2024-02-13T10:59:51.695Z,98479.66
2024-02-13T11:02:00.649Z,98484.16
2024-02-13T11:04:04.958Z,98482.94
2024-02-13T11:06:08.926Z,98485.53
2024-02-13T11:08:14.554Z,98486.38
2024-02-13T11:10:18.301Z,98480.31
2024-02-13T11:12:23.509Z,98488.06
2024-02-13T11:14:27.090Z,98491.59
2024-02-13T11:16:36.067Z,98491.78
2024-02-13T11:19:04.525Z,98485.84
2024-02-13T11:21:10.165Z,98491.06
2024-02-13T11:23:34.875Z,98484.69
2024-02-13T11:25:43.458Z,98482.72
2024-02-13T11:27:50.012Z,98478.88
2024-02-13T11:29:59.850Z,98473.00
2024-02-13T11:32:04.876Z,98472.50
2024-02-13T11:34:10.821Z,98462.63
2024-02-13T11:36:30.142Z,98461.44
2024-02-13T11:38:34.132Z,98458.31
2024-02-13T11:40:42.058Z,98459.53
2024-02-13T11:42:51.957Z,98456.38
2024-02-13T11:44:57.640Z,98467.91
2024-02-13T11:46:59.940Z,98468.97
2024-02-13T11:49:08.560Z,98453.16
2024-02-13T11:51:12.054Z,98456.94
2024-02-13T11:53:17.095Z,98456.03
2024-02-13T11:55:21.962Z,98450.94
2024-02-13T11:57:26.530Z,98451.06
2024-02-13T11:59:31.431Z,98458.81
2024-02-13T12:01:36.036Z,98454.53
2024-02-13T12:03:41.318Z,98456.41
2024-02-13T12:05:44.380Z,98445.63
2024-02-13T12:07:47.782Z,98450.53
2024-02-13T12:09:53.504Z,98449.41
2024-02-13T12:11:57.006Z,98442.19
2024-02-13T12:14:00.415Z,98439.38
2024-02-13T12:16:05.691Z,98434.69
2024-02-13T12:18:13.088Z,98435.69
2024-02-13T12:20:20.531Z,98436.31
2024-02-13T12:22:27.311Z,98440.19
2024-02-13T12:24:34.149Z,98433.72
2024-02-13T12:26:38.433Z,98429.50
2024-02-13T12:28:44.174Z,98437.97
2024-02-13T12:30:48.760Z,98432.06
2024-02-13T12:32:55.416Z,98443.56
2024-02-13T12:35:11.964Z,98439.56
2024-02-13T12:37:17.236Z,98439.09
2024-02-13T12:39:27.219Z,98434.47
2024-02-13T12:41:30.878Z,98431.50
2024-02-13T12:43:33.638Z,98434.66
2024-02-13T12:45:42.904Z,98431.06
2024-02-13T12:47:46.955Z,98435.59
2024-02-13T12:49:52.198Z,98430.41
2024-02-13T12:51:55.686Z,98426.88
2024-02-13T12:53:59.067Z,98422.00
2024-02-13T12:56:04.069Z,98422.09
2024-02-13T12:58:09.217Z,98418.94
2024-02-13T13:00:17.634Z,98421.56
2024-02-13T13:02:26.807Z,98411.19
2024-02-13T13:04:32.327Z,98413.81
2024-02-13T13:06:37.936Z,98414.25
2024-02-13T13:08:41.872Z,98421.59
2024-02-13T13:10:45.255Z,98411.34
2024-02-13T13:12:49.163Z,98409.78
2024-02-13T13:14:52.248Z,98408.84
2024-02-13T13:16:57.198Z,98411.25
2024-02-13T13:19:00.976Z,98419.69
2024-02-13T13:21:05.365Z,98416.97
2024-02-13T13:23:10.674Z,98402.75
2024-02-13T13:25:15.024Z,98407.34
2024-02-13T13:27:20.156Z,98407.16
2024-02-13T13:29:23.649Z,98406.56
2024-02-13T13:31:27.657Z,98409.50
2024-02-13T13:33:33.715Z,98404.25
2024-02-13T13:35:36.984Z,98412.28
2024-02-13T13:37:41.822Z,98416.38
2024-02-13T13:39:46.442Z,98416.97
2024-02-13T13:41:51.501Z,98411.53
2024-02-13T13:43:53.822Z,98413.22
2024-02-13T13:45:58.084Z,98414.47
2024-02-13T13:48:16.080Z,98417.53
2024-02-13T13:50:19.516Z,98417.75
2024-02-13T13:52:23.368Z,98411.69
2024-02-13T13:54:26.551Z,98420.03
2024-02-13T13:56:32.051Z,98417.41
2024-02-13T13:58:35.461Z,98421.59
2024-02-13T14:00:39.406Z,98413.75
2024-02-13T14:02:43.006Z,98415.28
2024-02-13T14:04:47.571Z,98414.47
2024-02-13T14:06:52.419Z,98414.69
2024-02-13T14:08:55.709Z,98418.13
2024-02-13T14:10:59.072Z,98417.53
2024-02-13T14:13:05.170Z,98410.22
2024-02-13T14:15:10.210Z,98411.59
2024-02-13T14:17:13.510Z,98418.72
2024-02-13T14:19:16.610Z,98420.59
2024-02-13T14:21:21.590Z,98424.16
2024-02-13T14:23:25.004Z,98415.06
2024-02-13T14:25:28.230Z,98423.72
2024-02-13T14:27:31.496Z,98424.22
2024-02-13T14:29:36.026Z,98433.31
2024-02-13T14:31:39.164Z,98427.16
2024-02-13T14:33:42.499Z,98427.38
2024-02-13T14:35:48.349Z,98429.56
2024-02-13T14:37:57.766Z,98417.34
2024-02-13T14:40:01.358Z,98416.84
2024-02-13T14:42:05.609Z,98415.47
2024-02-13T14:44:09.968Z,98411.41
2024-02-13T14:46:14.702Z,98416.75
2024-02-13T14:48:18.613Z,98423.97
2024-02-13T14:50:22.029Z,98423.34
2024-02-13T14:52:25.867Z,98417.28
2024-02-13T14:54:28.220Z,98419.59
2024-02-13T14:56:31.708Z,98420.84
2024-02-13T14:58:39.432Z,98416.56
2024-02-13T15:00:43.368Z,98420.34
2024-02-13T15:02:51.743Z,98423.56
2024-02-13T15:04:55.682Z,98413.13
2024-02-13T15:07:00.563Z,98425.47
2024-02-13T15:09:05.282Z,98418.16
2024-02-13T15:11:10.073Z,98417.53
2024-02-13T15:13:16.987Z,98422.97
2024-02-13T15:15:26.121Z,98430.06
2024-02-13T15:17:47.360Z,98428.19
2024-02-13T15:19:53.356Z,98422.88
2024-02-13T15:21:57.239Z,98425.59
2024-02-13T15:24:01.288Z,98429.22
2024-02-13T15:26:06.091Z,98432.78
2024-02-13T15:28:10.758Z,98427.53
2024-02-13T15:30:14.483Z,98434.03
2024-02-13T15:32:33.924Z,98429.63
2024-02-13T15:34:42.295Z,98431.53
2024-02-13T15:37:10.927Z,98426.31
2024-02-13T15:39:32.101Z,98432.56
2024-02-13T15:41:53.109Z,98432.56
2024-02-13T15:44:14.306Z,98429.22
2024-02-13T15:46:35.041Z,98430.47
2024-02-13T15:48:38.686Z,98437.47
2024-02-13T15:50:42.455Z,98435.78
2024-02-13T15:52:49.541Z,98435.28
2024-02-13T15:54:53.409Z,98424.81
2024-02-13T15:56:56.675Z,98425.75
2024-02-13T15:58:59.932Z,98428.38
2024-02-13T16:01:03.546Z,98431.06
2024-02-13T16:03:09.800Z,98431.06
2024-02-13T16:05:16.285Z,98435.47
2024-02-13T16:07:20.962Z,98433.34
2024-02-13T16:09:26.869Z,98433.63
2024-02-13T16:11:31.889Z,98434.97
2024-02-13T16:13:35.771Z,98441.34
2024-02-13T16:15:39.034Z,98440.63
2024-02-13T16:17:43.485Z,98447.69
2024-02-13T16:19:46.854Z,98444.56
2024-02-13T16:21:50.076Z,98454.28
2024-02-13T16:23:53.239Z,98452.78
2024-02-13T16:26:00.327Z,98458.09
2024-02-13T16:28:06.410Z,98459.13
2024-02-13T16:30:11.728Z,98460.19
2024-02-13T16:34:23.103Z,98473.94
2024-02-13T16:36:26.668Z,98468.91
2024-02-13T16:38:29.848Z,98470.75
2024-02-13T16:40:33.099Z,98477.75
2024-02-13T16:42:39.510Z,98483.06
2024-02-13T16:44:43.474Z,98479.72
2024-02-13T16:46:49.416Z,98485.97
2024-02-13T16:48:55.047Z,98492.13
2024-02-13T16:50:58.705Z,98482.63
2024-02-13T16:53:03.720Z,98488.88
2024-02-13T16:55:07.020Z,98485.44
2024-02-13T16:57:11.704Z,98490.00
2024-02-13T16:59:16.618Z,98489.16
2024-02-13T17:01:19.939Z,98487.59
2024-02-13T17:03:23.069Z,98490.31
2024-02-13T17:05:26.395Z,98486.19
2024-02-13T17:07:28.941Z,98488.16
2024-02-13T17:09:32.833Z,98489.91
2024-02-13T17:11:36.946Z,98485.84
2024-02-13T17:13:40.412Z,98488.63
2024-02-13T17:15:46.494Z,98484.53
2024-02-13T17:17:49.889Z,98487.34
2024-02-13T17:19:55.096Z,98489.22
2024-02-13T17:21:58.431Z,98489.50
2024-02-13T17:24:01.813Z,98486.16
2024-02-13T17:26:08.902Z,98493.13
2024-02-13T17:28:13.565Z,98492.38
2024-02-13T17:30:16.950Z,98499.66
2024-02-13T17:32:30.498Z,98496.38
2024-02-13T17:34:37.792Z,98493.94
2024-02-13T17:36:41.477Z,98498.63
2024-02-13T17:38:47.387Z,98501.41
2024-02-13T17:40:52.523Z,98495.47
2024-02-13T17:42:56.156Z,98493.03
2024-02-13T17:44:58.513Z,98501.03
2024-02-13T17:47:01.771Z,98496.19
2024-02-13T17:49:07.070Z,98495.81
2024-02-13T17:51:10.648Z,98491.53
2024-02-13T17:53:15.438Z,98499.25
2024-02-13T17:55:21.467Z,98489.34
2024-02-13T17:57:25.553Z,98486.47
2024-02-13T17:59:28.817Z,98480.56
2024-02-13T18:01:32.072Z,98493.03
2024-02-13T18:03:35.394Z,98492.56
2024-02-13T18:05:41.060Z,98484.19
2024-02-13T18:07:57.651Z,98485.38
2024-02-13T18:10:01.185Z,98485.72
2024-02-13T18:12:06.755Z,98479.00
2024-02-13T18:14:13.028Z,98477.44
2024-02-13T18:16:16.324Z,98476.66
2024-02-13T18:18:19.951Z,98478.34
2024-02-13T18:20:25.590Z,98475.66
2024-02-13T18:22:30.418Z,98481.78
2024-02-13T18:24:34.208Z,98479.34
2024-02-13T18:26:37.697Z,98479.72
2024-02-13T18:28:40.991Z,98480.09
2024-02-13T18:30:44.608Z,98474.38
2024-02-13T18:32:47.968Z,98478.94
2024-02-13T18:34:50.262Z,98473.97
2024-02-13T18:36:53.452Z,98477.50
2024-02-13T18:38:58.527Z,98476.09
2024-02-13T18:41:02.085Z,98471.25
2024-02-13T18:43:05.580Z,98475.75
2024-02-13T18:45:09.846Z,98474.28
2024-02-13T18:47:14.112Z,98471.75
2024-02-13T18:49:19.005Z,98475.19
2024-02-13T18:51:22.440Z,98474.44
2024-02-13T18:53:28.205Z,98465.03
2024-02-13T18:55:33.984Z,98478.97
2024-02-13T18:57:37.680Z,98480.72
2024-02-13T18:59:43.229Z,98485.19
2024-02-13T19:01:46.803Z,98479.31
2024-02-13T19:03:50.145Z,98487.94
2024-02-13T19:05:54.089Z,98480.22
2024-02-13T19:07:58.277Z,98473.44
2024-02-13T19:10:05.900Z,98489.13
2024-02-13T19:12:10.670Z,98491.06
2024-02-13T19:14:13.258Z,98479.81
2024-02-13T19:16:16.590Z,98483.41
2024-02-13T19:18:18.897Z,98490.47
2024-02-13T19:20:22.314Z,98491.56
2024-02-13T19:22:25.542Z,98492.47
2024-02-13T19:24:28.824Z,98496.09
2024-02-13T19:26:33.710Z,98496.25
2024-02-13T19:28:39.236Z,98494.72
2024-02-13T19:30:42.702Z,98486.19
2024-02-13T19:32:53.284Z,98489.84
2024-02-13T19:34:58.741Z,98494.31
2024-02-13T19:37:02.080Z,98495.31
2024-02-13T19:39:05.452Z,98489.34
2024-02-13T19:41:08.769Z,98494.78
2024-02-13T19:43:12.062Z,98487.16
2024-02-13T19:45:16.910Z,98486.50
2024-02-13T19:47:23.938Z,98487.41
2024-02-13T19:49:48.233Z,98489.34
2024-02-13T19:52:11.489Z,98496.44
2024-02-13T19:54:34.639Z,98490.41
2024-02-13T19:56:58.209Z,98490.56
2024-02-13T19:59:21.730Z,98493.25
2024-02-13T20:01:46.487Z,98492.41
2024-02-13T20:04:09.753Z,98491.56
2024-02-13T20:06:35.141Z,98500.44
2024-02-13T20:08:40.024Z,98491.13
2024-02-13T20:10:43.506Z,98491.25
2024-02-13T20:12:47.028Z,98489.59
2024-02-13T20:14:50.450Z,98488.75
2024-02-13T20:16:55.103Z,98490.66
2024-02-13T20:19:00.549Z,98482.88
2024-02-13T20:21:05.183Z,98486.47
2024-02-13T20:23:08.273Z,98491.88
2024-02-13T20:25:14.528Z,98494.56
2024-02-13T20:27:18.234Z,98499.84
2024-02-13T20:29:21.717Z,98500.78
2024-02-13T20:31:25.140Z,98501.00
2024-02-13T20:33:32.736Z,98501.25
2024-02-13T20:35:36.355Z,98505.72
2024-02-13T20:37:40.591Z,98499.03
2024-02-13T20:39:44.001Z,98505.22
2024-02-13T20:41:48.737Z,98502.84
2024-02-13T20:43:52.034Z,98501.34
2024-02-13T20:45:55.603Z,98510.03
2024-02-13T20:47:59.609Z,98505.06
2024-02-13T20:50:04.434Z,98508.50
2024-02-13T20:52:08.299Z,98508.66
2024-02-13T20:54:13.570Z,98504.47
2024-02-13T20:56:18.557Z,98506.28
2024-02-13T20:58:22.055Z,98502.09
2024-02-13T21:00:24.710Z,98506.50
2024-02-13T21:02:29.653Z,98504.94
2024-02-13T21:04:33.960Z,98508.50
2024-02-13T21:06:42.390Z,98517.19
2024-02-13T21:08:48.017Z,98507.06
2024-02-13T21:10:51.357Z,98511.38
2024-02-13T21:12:54.765Z,98520.13
2024-02-13T21:14:58.913Z,98521.09
2024-02-13T21:17:02.400Z,98518.50
2024-02-13T21:19:09.102Z,98521.25
2024-02-13T21:21:39.709Z,98523.06
2024-02-13T21:23:53.851Z,98524.06
2024-02-13T21:25:58.269Z,98518.03
2024-02-13T21:28:01.767Z,98524.13
2024-02-13T21:30:06.634Z,98527.63
2024-02-13T21:32:10.280Z,98533.69
2024-02-13T21:34:15.470Z,98524.28
2024-02-13T21:36:19.022Z,98532.88
2024-02-13T21:38:22.772Z,98537.31
2024-02-13T21:40:27.582Z,98533.03
2024-02-13T21:42:31.312Z,98529.59
2024-02-13T21:44:34.878Z,98522.72
2024-02-13T21:46:38.397Z,98534.03
2024-02-13T21:48:42.015Z,98524.56
2024-02-13T21:50:45.293Z,98518.63
2024-02-13T21:52:48.651Z,98524.56
2024-02-13T21:54:52.215Z,98521.28
2024-02-13T21:56:56.862Z,98524.84
2024-02-13T21:59:00.340Z,98523.97
2024-02-13T22:01:03.615Z,98516.19
2024-02-13T22:03:07.528Z,98520.50
2024-02-13T22:05:10.873Z,98511.13
2024-02-13T22:07:25.365Z,98515.53
2024-02-13T22:09:28.557Z,98515.53
2024-02-13T22:11:31.783Z,98513.88
2024-02-13T22:13:36.399Z,98524.19
2024-02-13T22:15:39.679Z,98519.06
2024-02-13T22:17:42.922Z,98519.06
2024-02-13T22:19:45.424Z,98521.66
2024-02-13T22:21:48.717Z,98519.06
2024-02-13T22:23:51.956Z,98520.88
2024-02-13T22:25:57.975Z,98515.69
2024-02-13T22:28:02.573Z,98523.38
2024-02-13T22:30:08.630Z,98517.44
2024-02-13T22:32:32.962Z,98513.25
2024-02-13T22:34:37.672Z,98512.47
2024-02-13T22:36:41.087Z,98518.75
2024-02-13T22:38:45.013Z,98507.56
2024-02-13T22:40:47.288Z,98519.72
2024-02-13T22:42:50.496Z,98511.09
2024-02-13T22:44:53.692Z,98510.38
2024-02-13T22:46:58.351Z,98518.22
2024-02-13T22:49:01.650Z,98515.03
2024-02-13T22:51:05.076Z,98521.25
2024-02-13T22:53:08.385Z,98518.88
2024-02-13T22:55:11.677Z,98519.00
2024-02-13T22:57:15.064Z,98514.75
2024-02-13T22:59:18.247Z,98510.63
2024-02-13T23:01:21.424Z,98515.88
2024-02-13T23:03:27.621Z,98510.75
2024-02-13T23:05:32.660Z,98510.06
2024-02-13T23:07:38.925Z,98507.63
2024-02-13T23:09:42.703Z,98511.25
2024-02-13T23:11:51.994Z,98508.72
2024-02-13T23:13:59.636Z,98510.69
2024-02-13T23:16:17.891Z,98514.19
2024-02-13T23:18:27.843Z,98515.25
2024-02-13T23:20:39.091Z,98511.03
2024-02-13T23:23:02.266Z,98508.59
2024-02-13T23:25:10.742Z,98510.34
2024-02-13T23:27:16.413Z,98507.03
2024-02-13T23:29:18.707Z,98509.84
2024-02-13T23:31:22.182Z,98503.91
2024-02-13T23:33:30.701Z,98507.47
2024-02-13T23:35:34.755Z,98502.31
2024-02-13T23:37:38.501Z,98507.56
2024-02-13T23:39:41.776Z,98507.63
2024-02-13T23:41:47.112Z,98505.16
2024-02-13T23:43:51.032Z,98509.53
2024-02-13T23:45:55.636Z,98510.53
2024-02-13T23:47:59.218Z,98512.47
2024-02-13T23:50:03.924Z,98509.81
2024-02-13T23:52:07.986Z,98516.81
2024-02-13T23:54:11.663Z,98512.66
2024-02-13T23:56:15.075Z,98516.19
2024-02-13T23:58:18.462Z,98521.50
